Time;durP1;ratioP1;P1;durP2;ratioP2;P2;SDS_P1;SDS_P2;PMS_P1;PMS_P2;Temp;Humidity;BMP_temperature;BMP_pressure;BME280_temperature;BME280_humidity;BME280_pressure;Samples;Min_cycle;Max_cycle;Signal;HPM_P1;HPM_P2
2022/08/12 00:45:15;;;;;;;20.95;12.25;;;;;;;25.22;62.21;99702.50;1784454;80;21659;-80
2022/08/12 00:48:20;;;;;;;18.80;12.37;;;;;;;25.21;62.44;99703.60;1784824;80;21200;-80
2022/08/12 00:52:05;;;;;;;17.67;11.20;;;;;;;25.15;62.42;99707.56;1786039;80;21156;-80
2022/08/12 00:54:35;;;;;;;24.65;12.63;;;;;;;24.95;62.45;99709.03;1786024;80;21160;-80
2022/08/12 00:57:42;;;;;;;24.85;11.80;;;;;;;25.01;62.00;99712.07;1784583;80;21758;-81
2022/08/12 01:00:48;;;;;;;24.75;11.78;;;;;;;25.18;60.55;99711.76;1785937;80;21686;-80
2022/08/12 01:14:03;;;;;;;20.40;11.20;;;;;;;25.35;59.80;99726.77;1785305;80;21200;-80
2022/08/12 01:17:09;;;;;;;20.52;10.43;;;;;;;25.32;59.76;99711.97;1772521;80;21223;-80
2022/08/12 01:20:14;;;;;;;28.83;10.82;;;;;;;25.25;60.06;99729.06;1784373;80;21165;-81
2022/08/12 01:23:32;;;;;;;31.25;10.10;;;;;;;25.23;60.14;99733.55;1784429;80;21192;-80
2022/08/12 01:26:38;;;;;;;25.08;8.68;;;;;;;25.37;59.98;99725.94;1785679;80;21133;-80
2022/08/12 01:29:50;;;;;;;28.73;9.23;;;;;;;25.38;60.38;99722.84;1784539;80;21207;-80
2022/08/12 01:32:56;;;;;;;23.65;9.60;;;;;;;25.23;61.60;99723.77;1778978;80;21200;-80
2022/08/12 01:36:05;;;;;;;20.48;10.23;;;;;;;25.08;63.42;99725.23;1770545;81;21193;-80
2022/08/12 01:39:11;;;;;;;24.90;10.45;;;;;;;24.97;65.50;99734.17;1770618;81;21220;-80
2022/08/12 01:42:10;;;;;;;30.90;13.13;;;;;;;24.76;67.36;99729.79;1771818;81;21165;-79
2022/08/12 01:45:03;;;;;;;23.52;13.80;;;;;;;24.49;69.04;99732.92;1772088;81;21174;-81
2022/08/12 01:48:33;;;;;;;19.60;11.20;;;;;;;24.33;71.02;99732.08;1771644;81;21173;-79
2022/08/12 01:51:47;;;;;;;32.35;13.08;;;;;;;24.11;71.92;99728.17;1769586;80;21213;-80
2022/08/12 01:54:48;;;;;;;26.42;13.93;;;;;;;23.97;72.86;99732.64;1771972;81;21197;-80
2022/08/12 01:57:49;;;;;;;37.00;14.87;;;;;;;23.83;74.06;99725.37;1771356;81;21197;-80
2022/08/12 02:01:10;;;;;;;22.37;13.15;;;;;;;23.65;75.20;99721.15;1772196;81;21582;-79
2022/08/12 02:12:33;;;;;;;34.58;13.88;;;;;;;23.38;77.49;99717.70;1771894;81;21196;-81
2022/08/12 02:16:10;;;;;;;25.85;13.98;;;;;;;23.32;78.45;99721.61;1767407;81;21185;-80
2022/08/12 02:19:42;;;;;;;27.85;13.55;;;;;;;23.32;77.67;99725.23;1771231;81;21181;-79
2022/08/12 02:22:50;;;;;;;22.77;13.15;;;;;;;23.40;76.76;99721.91;1771459;81;21177;-79
2022/08/12 02:25:55;;;;;;;27.07;14.03;;;;;;;23.44;77.11;99712.44;1772169;81;21602;-80
2022/08/12 02:29:01;;;;;;;24.87;14.23;;;;;;;23.49;77.95;99723.61;1770647;81;21201;-79
2022/08/12 02:32:07;;;;;;;25.97;14.68;;;;;;;23.45;78.61;99714.11;1772131;81;21165;-79
2022/08/12 02:35:18;;;;;;;22.17;14.15;;;;;;;23.37;79.59;99717.43;1783945;80;21168;-80
2022/08/12 02:38:25;;;;;;;34.13;13.62;;;;;;;23.26;79.69;99722.16;1784798;80;21235;-80
2022/08/12 02:41:32;;;;;;;29.18;13.43;;;;;;;23.24;78.62;99731.89;1785797;80;21706;-79
2022/08/12 02:44:42;;;;;;;28.70;11.38;;;;;;;23.01;78.94;99734.06;1785469;80;21184;-79
2022/08/12 02:47:49;;;;;;;31.55;11.95;;;;;;;23.00;78.15;99741.28;1785254;80;21192;-79
2022/08/12 02:51:00;;;;;;;37.90;12.70;;;;;;;23.02;78.16;99755.81;1785779;80;21212;-79
2022/08/12 02:54:08;;;;;;;33.50;11.73;;;;;;;23.03;77.42;99759.72;1785990;80;21161;-79
2022/08/12 02:57:18;;;;;;;42.58;11.55;;;;;;;23.16;76.83;99765.36;1785646;80;21162;-80
2022/08/12 03:00:22;;;;;;;29.80;11.05;;;;;;;23.20;76.27;99770.13;1784266;80;21216;-79
2022/08/12 03:03:26;;;;;;;37.60;11.22;;;;;;;23.23;76.17;99764.53;1785926;80;21168;-79
2022/08/12 03:06:34;;;;;;;36.35;11.48;;;;;;;23.23;76.50;99767.88;1784449;80;21189;-80
2022/08/12 03:09:44;;;;;;;37.40;11.30;;;;;;;23.18;77.09;99769.53;1785282;80;21710;-80
2022/08/12 03:12:53;;;;;;;43.40;12.00;;;;;;;23.13;77.87;99768.68;1784597;80;21195;-79
2022/08/12 03:16:00;;;;;;;31.90;12.58;;;;;;;23.25;77.67;99761.49;1785260;80;21196;-80
2022/08/12 03:19:05;;;;;;;29.50;12.47;;;;;;;23.11;77.87;99768.12;1772551;80;21220;-80
2022/08/12 03:22:13;;;;;;;36.75;13.15;;;;;;;23.15;78.05;99765.08;1785732;80;21191;-80
2022/08/12 03:25:33;;;;;;;38.58;13.48;;;;;;;23.16;78.01;99773.17;1785855;80;21694;-80
2022/08/12 03:28:56;;;;;;;34.25;12.53;;;;;;;23.21;77.60;99775.14;1785768;80;21211;-79
2022/08/12 03:32:06;;;;;;;43.08;12.47;;;;;;;23.16;77.71;99789.06;1785744;80;21169;-79
2022/08/12 03:35:15;;;;;;;44.40;13.43;;;;;;;23.18;76.82;99780.70;1784055;80;21232;-80
2022/08/12 03:38:22;;;;;;;43.33;12.45;;;;;;;23.29;76.59;99787.71;1784156;80;21178;-80
2022/08/12 03:41:35;;;;;;;51.77;12.65;;;;;;;23.29;76.72;99782.13;1784182;80;21741;-80
2022/08/12 04:01:57;;;;;;;44.27;13.43;;;;;;;23.25;76.21;99811.72;1784610;80;21161;-79
2022/08/12 04:05:03;;;;;;;47.50;12.35;;;;;;;23.20;75.93;99818.94;1785600;80;21157;-80
2022/08/12 04:08:10;;;;;;;54.13;12.50;;;;;;;23.17;76.41;99823.66;1784838;80;21197;-80
2022/08/12 04:14:40;;;;;;;47.62;11.85;;;;;;;23.18;76.39;99826.72;1785849;80;21157;-80
2022/08/12 04:17:46;;;;;;;53.90;12.85;;;;;;;23.29;76.33;99829.03;1785174;80;21203;-80
2022/08/12 04:20:53;;;;;;;51.30;12.88;;;;;;;23.30;75.69;99830.70;1784487;80;21266;-80
2022/08/12 04:23:59;;;;;;;42.33;12.33;;;;;;;23.33;75.28;99834.88;1784447;80;21243;-80
2022/08/12 04:27:07;;;;;;;46.53;12.37;;;;;;;23.35;75.58;99848.03;1785767;80;21188;-80
2022/08/12 04:30:14;;;;;;;41.18;12.00;;;;;;;23.33;76.27;99851.63;1785563;80;21204;-80
2022/08/12 04:33:20;;;;;;;57.27;13.60;;;;;;;23.32;76.33;99850.80;1784754;80;21522;-80
2022/08/12 04:36:25;;;;;;;51.05;13.38;;;;;;;23.40;76.10;99850.84;1776816;80;21201;-80
2022/08/12 04:39:32;;;;;;;38.48;11.33;;;;;;;23.20;77.22;99859.95;1772134;81;21158;-80
2022/08/12 04:42:38;;;;;;;46.08;13.00;;;;;;;23.25;77.51;99857.75;1771705;81;21224;-80
2022/08/12 04:45:48;;;;;;;47.85;12.25;;;;;;;23.21;77.82;99856.05;1772136;81;21193;-79
2022/08/12 04:48:54;;;;;;;39.60;13.22;;;;;;;23.22;78.12;99856.33;1770759;81;21217;-81
2022/08/12 04:52:02;;;;;;;40.83;12.10;;;;;;;23.19;78.24;99862.43;1770965;81;21185;-79
2022/08/12 04:55:12;;;;;;;45.08;12.73;;;;;;;23.18;78.37;99858.80;1772175;81;21714;-80
2022/08/12 04:58:17;;;;;;;31.30;10.65;;;;;;;23.19;77.73;99861.88;1762701;81;21169;-80
2022/08/12 05:01:26;;;;;;;37.50;12.20;;;;;;;23.18;76.51;99861.59;1771361;81;21173;-80
2022/08/12 05:04:31;;;;;;;35.03;10.38;;;;;;;23.18;76.26;99861.59;1772219;81;21157;-80
2022/08/12 05:07:36;;;;;;;39.27;10.72;;;;;;;23.25;75.12;99853.00;1771752;81;21169;-80
2022/08/12 05:10:45;;;;;;;34.27;11.00;;;;;;;23.32;74.09;99857.77;1772038;81;21167;-80
2022/08/12 05:13:50;;;;;;;37.70;10.80;;;;;;;23.39;72.45;99863.95;1770993;81;21189;-80
2022/08/12 05:16:59;;;;;;;29.95;9.65;;;;;;;23.52;72.16;99864.55;1763093;81;21189;-80
2022/08/12 05:20:06;;;;;;;29.27;8.93;;;;;;;23.55;72.04;99863.45;1748802;81;21170;-80
2022/08/12 05:23:18;;;;;;;31.20;9.90;;;;;;;23.60;72.03;99858.45;1771017;81;21217;-79
2022/08/12 05:26:23;;;;;;;33.05;9.93;;;;;;;23.55;72.43;99869.05;1772242;81;21173;-80
2022/08/12 05:29:30;;;;;;;35.30;9.48;;;;;;;23.55;72.35;99872.39;1772029;81;21162;-80
2022/08/12 05:32:37;;;;;;;30.23;10.35;;;;;;;23.60;72.41;99864.03;1765894;81;21750;-80
2022/08/12 05:35:46;;;;;;;23.75;9.35;;;;;;;23.59;71.94;99870.73;1766594;81;21158;-80
2022/08/12 05:38:56;;;;;;;34.63;10.30;;;;;;;23.53;71.35;99859.28;1765968;80;21172;-80
2022/08/12 05:42:03;;;;;;;23.47;9.63;;;;;;;23.58;70.99;99860.69;1782010;80;21236;-80
2022/08/12 05:45:02;;;;;;;23.45;8.80;;;;;;;23.66;70.27;99851.80;1781219;80;21145;-82
2022/08/12 05:47:56;;;;;;;28.42;8.83;;;;;;;23.77;69.66;99855.48;1768702;80;21279;-81
2022/08/12 05:50:42;;;;;;;22.07;7.75;;;;;;;23.82;68.44;99859.69;1767478;80;21162;-80
2022/08/12 05:53:37;;;;;;;22.58;8.45;;;;;;;23.90;68.31;99871.70;1765612;80;21552;-81
2022/08/12 05:56:25;;;;;;;24.65;8.75;;;;;;;23.91;67.67;99865.86;1767580;80;21561;-81
2022/08/12 05:59:20;;;;;;;16.80;8.25;;;;;;;23.92;67.05;99873.12;1784087;80;21137;-81
2022/08/12 06:02:25;;;;;;;15.20;7.95;;;;;;;23.93;66.74;99884.56;1758904;80;21178;-81
2022/08/12 06:05:33;;;;;;;20.52;8.10;;;;;;;23.93;66.28;99880.38;1779602;80;21153;-81
2022/08/12 06:08:46;;;;;;;20.05;8.83;;;;;;;23.89;66.43;99886.78;1782336;80;21244;-81
2022/08/12 06:11:49;;;;;;;17.20;7.92;;;;;;;23.79;65.66;99885.36;1777941;80;21749;-81
2022/08/12 06:14:57;;;;;;;14.25;7.30;;;;;;;23.78;65.84;99875.31;1758126;80;21486;-80
2022/08/12 06:18:12;;;;;;;16.23;7.87;;;;;;;23.75;65.64;99870.27;1742162;80;21194;-80
2022/08/12 06:21:20;;;;;;;15.05;7.22;;;;;;;23.75;66.10;99868.86;1750351;80;21150;-81
2022/08/12 06:24:27;;;;;;;12.75;6.90;;;;;;;23.69;65.78;99853.50;1752706;82;21222;-81
2022/08/12 06:27:32;;;;;;;12.73;7.65;;;;;;;23.66;65.64;99855.98;1752426;81;21229;-80
2022/08/12 06:30:40;;;;;;;15.68;6.60;;;;;;;23.70;65.06;99850.14;1751765;82;21174;-81
2022/08/12 06:33:46;;;;;;;15.55;6.53;;;;;;;23.68;65.84;99835.07;1718799;82;22109;-80
2022/08/12 06:36:54;;;;;;;17.40;7.08;;;;;;;23.73;65.30;99820.84;1756008;80;21146;-80
2022/08/12 06:40:00;;;;;;;18.60;7.20;;;;;;;23.81;65.32;99827.30;1770028;80;21218;-81
2022/08/12 06:43:06;;;;;;;21.07;6.70;;;;;;;23.84;65.57;99833.72;1775627;80;21161;-81
2022/08/12 06:46:05;;;;;;;9.28;6.17;;;;;;;23.91;65.15;99831.52;1771495;80;21180;-80
2022/08/12 06:49:02;;;;;;;12.68;5.50;;;;;;;24.02;64.78;99827.61;1776170;80;21165;-80
2022/08/12 06:52:06;;;;;;;12.33;6.08;;;;;;;24.14;63.88;99817.59;1778379;80;21204;-81
2022/08/12 06:55:19;;;;;;;9.33;5.40;;;;;;;24.25;63.02;99812.84;1766293;80;21753;-80
2022/08/12 06:58:20;;;;;;;13.22;5.83;;;;;;;24.40;61.92;99818.45;1777939;80;21145;-81
2022/08/12 07:01:30;;;;;;;10.72;5.47;;;;;;;24.46;60.81;99816.77;1770871;80;21137;-81
2022/08/12 07:04:37;;;;;;;8.20;4.90;;;;;;;24.61;60.42;99808.13;1768256;80;21738;-81
2022/08/12 07:07:45;;;;;;;11.20;5.00;;;;;;;24.71;60.12;99811.73;1773644;80;21149;-81
2022/08/12 07:11:00;;;;;;;10.43;5.40;;;;;;;24.80;60.25;99809.77;1767853;80;21208;-81
2022/08/12 07:14:08;;;;;;;21.77;6.30;;;;;;;24.92;59.82;99818.12;1782262;80;21169;-80
2022/08/12 07:17:14;;;;;;;14.33;5.42;;;;;;;25.05;59.78;99825.09;1783670;80;21757;-80
2022/08/12 07:20:21;;;;;;;14.35;5.92;;;;;;;25.11;59.18;99826.77;1768241;80;21188;-80
2022/08/12 07:23:27;;;;;;;14.60;6.08;;;;;;;25.35;59.01;99828.38;1740242;82;21231;-80
2022/08/12 07:26:38;;;;;;;18.75;6.50;;;;;;;25.51;58.76;99831.97;1774245;80;21236;-80
2022/08/12 07:29:42;;;;;;;16.63;6.10;;;;;;;25.69;58.40;99838.33;1754844;80;21177;-80
2022/08/12 07:32:50;;;;;;;20.95;6.90;;;;;;;25.76;58.85;99837.20;1751700;82;21935;-79
2022/08/12 07:35:58;;;;;;;25.20;7.40;;;;;;;25.92;57.93;99838.20;1702170;83;21247;-80
2022/08/12 07:39:03;;;;;;;19.02;7.40;;;;;;;26.05;58.68;99831.70;1730516;82;21265;-80
2022/08/12 07:42:09;;;;;;;18.95;6.83;;;;;;;26.38;56.75;99828.08;1769366;81;21189;-80
2022/08/12 07:45:16;;;;;;;21.73;7.95;;;;;;;25.94;58.78;99827.56;1770867;81;21162;-79
2022/08/12 07:48:21;;;;;;;17.67;7.90;;;;;;;26.09;59.26;99828.02;1768674;81;21762;-79
2022/08/12 07:51:29;;;;;;;25.45;8.03;;;;;;;26.23;59.35;99822.03;1719846;82;21152;-80
2022/08/12 07:54:35;;;;;;;25.48;8.43;;;;;;;26.46;58.35;99831.70;1756501;81;21794;-80
2022/08/12 07:57:41;;;;;;;18.73;7.90;;;;;;;26.65;57.73;99826.20;1769015;81;21213;-81
2022/08/12 08:00:48;;;;;;;19.20;8.05;;;;;;;26.91;59.11;99815.59;1765053;81;21704;-79
2022/08/12 08:07:21;;;;;;;27.42;9.03;;;;;;;27.20;55.82;99822.59;1755482;81;21143;-80
2022/08/12 08:10:27;;;;;;;21.50;9.65;;;;;;;27.30;56.35;99822.20;1756718;81;21782;-80
2022/08/12 08:13:34;;;;;;;19.07;8.95;;;;;;;27.42;56.33;99830.45;1756145;81;22085;-80
2022/08/12 08:16:41;;;;;;;22.50;10.38;;;;;;;27.63;55.24;99840.88;1752629;81;21155;-81
2022/08/12 08:19:51;;;;;;;23.22;10.28;;;;;;;27.72;53.09;99830.68;1760635;81;21133;-82
2022/08/12 08:23:00;;;;;;;24.67;9.68;;;;;;;27.83;53.17;99834.17;1750564;81;21166;-81
2022/08/12 08:26:05;;;;;;;21.48;10.03;;;;;;;27.76;52.59;99837.38;1756226;81;21141;-81
2022/08/12 08:29:11;;;;;;;25.45;10.75;;;;;;;27.74;53.91;99821.94;1756655;81;21185;-80
2022/08/12 08:32:18;;;;;;;20.45;10.98;;;;;;;27.80;55.60;99832.53;1756764;81;21165;-80
2022/08/12 08:35:25;;;;;;;26.30;11.90;;;;;;;27.87;54.26;99836.66;1753218;81;22041;-80
2022/08/12 08:38:32;;;;;;;22.27;11.05;;;;;;;27.84;55.00;99837.81;1752555;81;21216;-80
2022/08/12 08:45:11;;;;;;;22.35;11.40;;;;;;;27.98;54.60;99841.55;1711075;83;21160;-80
2022/08/12 08:48:12;;;;;;;29.52;12.07;;;;;;;27.96;54.21;99848.89;1734408;82;21200;-81
2022/08/12 08:51:20;;;;;;;19.40;11.75;;;;;;;27.94;53.70;99845.53;1723737;82;21358;-81
2022/08/12 08:54:32;;;;;;;24.10;11.70;;;;;;;27.91;53.38;99847.56;1701149;83;21173;-82
2022/08/12 08:57:34;;;;;;;23.80;10.82;;;;;;;27.96;53.33;99840.45;1707943;83;21183;-80
2022/08/12 09:00:38;;;;;;;24.40;11.48;;;;;;;28.03;53.49;99832.47;1722870;82;21169;-81
2022/08/12 09:03:46;;;;;;;22.85;11.50;;;;;;;28.18;51.98;99842.67;1718484;83;21226;-84
2022/08/12 09:06:59;;;;;;;19.32;10.55;;;;;;;28.39;51.51;99853.05;1728509;83;21197;-82
2022/08/12 09:10:03;;;;;;;17.48;11.08;;;;;;;28.39;50.76;99857.84;1713563;83;21252;-82
2022/08/12 09:13:33;;;;;;;21.10;10.80;;;;;;;28.32;51.71;99841.87;1711844;82;21193;-82
2022/08/12 09:16:39;;;;;;;19.82;10.58;;;;;;;28.57;51.59;99838.70;1714193;82;21732;-82
2022/08/12 09:19:47;;;;;;;16.52;10.38;;;;;;;28.73;50.65;99836.45;1736073;82;21794;-82
2022/08/12 09:22:54;;;;;;;26.77;11.08;;;;;;;28.93;49.56;99840.86;1723615;82;21171;-81
2022/08/12 09:26:01;;;;;;;18.98;11.22;;;;;;;28.95;49.24;99845.09;1709212;82;21183;-81
2022/08/12 09:29:08;;;;;;;21.27;10.88;;;;;;;28.90;48.78;99834.47;1718939;82;21176;-81
2022/08/12 09:32:17;;;;;;;20.23;10.72;;;;;;;28.79;49.90;99819.72;1727775;82;21742;-81
2022/08/12 09:35:30;;;;;;;20.00;11.05;;;;;;;28.80;50.54;99824.23;1725115;83;21745;-81
2022/08/12 09:38:36;;;;;;;15.68;10.60;;;;;;;28.98;50.63;99823.91;1724858;83;21192;-81
2022/08/12 09:45:21;;;;;;;18.77;11.10;;;;;;;28.98;50.63;99823.91;1719297;82;21240;-82
2022/08/12 09:48:23;;;;;;;18.42;9.93;;;;;;;28.83;46.08;99832.61;1673901;83;21196;-81
2022/08/12 09:51:22;;;;;;;;;;;;;;;28.77;46.23;99852.41;1700432;83;21232;-81
2022/08/12 09:54:30;;;;;;;20.08;10.58;;;;;;;28.77;46.72;99836.09;1721961;83;20218;-81
2022/08/12 09:57:38;;;;;;;19.43;10.30;;;;;;;28.91;46.61;99816.42;1688783;83;21225;-81
2022/08/12 10:00:46;;;;;;;16.35;9.68;;;;;;;29.44;46.16;99825.25;1687767;85;21172;-81
2022/08/12 10:03:52;;;;;;;17.37;9.78;;;;;;;29.40;45.55;99831.24;1677700;85;21188;-81
2022/08/12 10:06:59;;;;;;;18.40;10.68;;;;;;;29.52;45.71;99832.14;1675678;85;21797;-81
2022/08/12 10:10:05;;;;;;;18.27;10.43;;;;;;;29.70;44.23;99826.99;1682889;83;21225;-81
2022/08/12 10:16:43;;;;;;;18.65;10.55;;;;;;;30.01;45.58;99829.11;1675973;85;21172;-81
2022/08/12 10:19:45;;;;;;;18.20;9.48;;;;;;;29.94;44.30;99831.55;1687936;85;21188;-80
2022/08/12 10:22:47;;;;;;;25.55;10.10;;;;;;;29.94;44.30;99831.55;1683731;85;21183;-80
2022/08/12 10:29:43;;;;;;;17.62;9.68;;;;;;;30.03;44.70;99817.78;1660540;86;21216;-82
2022/08/12 10:32:49;;;;;;;19.30;10.68;;;;;;;30.22;44.49;99816.24;1685270;85;21239;-82
2022/08/12 10:35:58;;;;;;;16.40;9.58;;;;;;;30.35;44.88;99805.20;1670247;85;21550;-82
2022/08/12 10:39:04;;;;;;;23.35;10.43;;;;;;;30.46;44.53;99805.22;1659565;86;21215;-82
2022/08/12 10:45:41;;;;;;;24.80;10.25;;;;;;;30.59;43.03;99826.07;1699353;84;21221;-82
2022/08/12 10:48:52;;;;;;;30.43;9.93;;;;;;;30.63;43.81;99814.37;1754645;81;21705;-81
2022/08/12 10:51:56;;;;;;;29.85;10.55;;;;;;;30.74;42.28;99818.06;1738284;81;21223;-82
2022/08/12 10:55:03;;;;;;;27.13;10.13;;;;;;;30.69;41.23;99819.58;1745200;81;21189;-81
2022/08/12 10:58:13;;;;;;;24.47;9.53;;;;;;;30.60;41.93;99813.03;1700121;84;21497;-82
2022/08/12 11:01:20;;;;;;;28.87;10.20;;;;;;;30.52;41.65;99837.20;1698516;84;21230;-81
2022/08/12 11:04:28;;;;;;;20.50;9.15;;;;;;;30.29;43.34;99812.38;1697970;84;21181;-82
2022/08/12 11:07:37;;;;;;;31.50;10.10;;;;;;;30.32;42.51;99812.91;1672768;85;21553;-81
2022/08/12 11:10:46;;;;;;;33.93;9.73;;;;;;;30.32;42.51;99812.91;1738478;81;21212;-81
2022/08/12 11:13:52;;;;;;;22.95;9.38;;;;;;;30.37;42.76;99819.26;1738842;82;21249;-81
2022/08/12 11:16:58;;;;;;;28.70;9.20;;;;;;;30.43;42.88;99862.28;1738992;82;21888;-82
2022/08/12 11:20:06;;;;;;;23.45;9.55;;;;;;;30.29;43.48;99840.59;1739877;82;21189;-82
2022/08/12 11:23:12;;;;;;;36.17;9.98;;;;;;;30.13;43.74;99828.02;1739471;82;21181;-81
2022/08/12 11:26:19;;;;;;;27.35;9.73;;;;;;;29.98;44.42;99852.32;1738348;82;21221;-81
2022/08/12 11:29:25;;;;;;;27.80;10.53;;;;;;;29.98;44.42;99852.32;1705146;84;21149;-82
2022/08/12 11:32:33;;;;;;;;;;;;;;;29.82;44.95;99822.20;1751109;81;21167;-82
2022/08/12 11:35:42;;;;;;;29.92;10.75;;;;;;;29.83;45.51;99839.41;1753114;81;20586;-82
2022/08/12 11:38:50;;;;;;;46.65;10.23;;;;;;;29.85;45.98;99827.80;1755254;81;21642;-81
2022/08/12 11:41:55;;;;;;;33.78;10.03;;;;;;;29.86;46.00;99835.10;1752058;81;21167;-81
2022/08/12 11:44:56;;;;;;;31.35;10.60;;;;;;;29.89;45.45;99847.17;1767936;81;21233;-81
2022/08/12 11:48:02;;;;;;;31.37;10.43;;;;;;;29.86;45.68;99840.74;1746845;81;21170;-81
2022/08/12 11:51:10;;;;;;;23.62;9.65;;;;;;;29.86;46.38;99843.56;1740289;81;21831;-81
2022/08/12 11:54:15;;;;;;;25.00;9.95;;;;;;;29.87;47.38;99842.41;1740172;82;21201;-82
2022/08/12 11:57:21;;;;;;;25.92;9.48;;;;;;;29.89;46.38;99844.34;1752479;81;21495;-82
2022/08/12 12:00:28;;;;;;;43.83;10.23;;;;;;;29.75;45.19;99859.29;1765592;81;21694;-82
2022/08/12 12:03:38;;;;;;;25.37;9.78;;;;;;;29.52;45.50;99871.00;1753897;81;21164;-80
2022/08/12 12:06:45;;;;;;;21.50;8.63;;;;;;;29.52;45.50;99871.00;1749931;81;21130;-82
2022/08/12 12:09:52;;;;;;;17.62;9.73;;;;;;;29.42;44.92;99871.22;1751609;81;21726;-82
2022/08/12 12:12:58;;;;;;;20.27;10.15;;;;;;;29.16;45.23;99858.19;1703707;83;21525;-79
2022/08/12 12:16:05;;;;;;;19.92;9.33;;;;;;;29.12;45.21;99871.80;1765526;81;21502;-81
2022/08/12 12:19:12;;;;;;;18.80;9.55;;;;;;;29.09;45.60;99877.49;1762116;81;21722;-81
2022/08/12 12:22:18;;;;;;;16.48;10.05;;;;;;;29.17;45.05;99862.70;1746421;81;21806;-82
2022/08/12 12:25:26;;;;;;;20.15;9.93;;;;;;;29.16;45.55;99862.99;1761014;81;21190;-80
2022/08/12 12:28:32;;;;;;;19.92;9.28;;;;;;;29.17;45.75;99875.92;1738203;82;21759;-80
2022/08/12 12:31:40;;;;;;;17.00;9.28;;;;;;;29.29;46.43;99860.77;1739805;82;21163;-80
2022/08/12 12:34:47;;;;;;;23.47;9.95;;;;;;;29.43;45.79;99863.59;1740636;82;21199;-81
2022/08/12 12:38:03;;;;;;;26.05;10.15;;;;;;;29.40;45.91;99870.68;1738895;82;21190;-79
2022/08/12 12:41:10;;;;;;;21.10;9.20;;;;;;;29.38;46.36;99875.80;1741158;82;21176;-79
2022/08/12 12:44:16;;;;;;;22.35;9.45;;;;;;;29.38;47.12;99869.34;1741211;81;21214;-80
2022/08/12 12:47:23;;;;;;;20.15;9.90;;;;;;;29.31;47.76;99878.76;1747424;81;21154;-83
2022/08/12 12:50:31;;;;;;;19.00;9.73;;;;;;;29.17;48.32;99854.25;1752701;81;21183;-83
2022/08/12 12:53:38;;;;;;;21.75;8.93;;;;;;;29.11;48.79;99870.96;1759273;81;21201;-83
2022/08/12 12:56:48;;;;;;;19.30;9.85;;;;;;;29.07;49.25;99853.02;1755644;81;21134;-80
2022/08/12 13:03:22;;;;;;;17.82;9.05;;;;;;;29.24;49.73;99857.48;1750359;81;21810;-82
2022/08/12 13:06:30;;;;;;;17.73;9.10;;;;;;;29.21;49.69;99845.42;1739960;82;21191;-81
2022/08/12 13:09:36;;;;;;;16.32;9.45;;;;;;;29.16;49.72;99835.66;1747786;81;21603;-83
2022/08/12 13:12:43;;;;;;;16.65;8.40;;;;;;;29.18;50.21;99863.53;1742573;81;21287;-82
2022/08/12 13:15:49;;;;;;;19.98;8.83;;;;;;;29.14;50.85;99849.23;1740296;82;21242;-81
2022/08/12 13:18:58;;;;;;;15.72;8.73;;;;;;;29.13;50.82;99853.78;1739142;82;21756;-82
2022/08/12 13:22:18;;;;;;;21.90;9.73;;;;;;;28.91;51.40;99883.98;1740516;82;21254;-81
2022/08/12 13:25:26;;;;;;;18.75;8.48;;;;;;;28.75;51.94;99856.69;1739561;82;21759;-80
2022/08/12 13:28:34;;;;;;;;;;;;;;;28.52;52.85;99866.34;1742409;82;21238;-82
2022/08/12 13:31:41;;;;;;;19.62;9.60;;;;;;;28.37;53.54;99853.08;1740489;82;20199;-81
2022/08/12 13:34:52;;;;;;;21.87;9.53;;;;;;;28.28;54.06;99853.76;1738193;82;21581;-79
2022/08/12 13:38:00;;;;;;;22.37;8.90;;;;;;;28.26;54.99;99858.84;1739103;82;21214;-78
2022/08/12 13:41:06;;;;;;;20.10;10.32;;;;;;;28.23;54.71;99867.90;1740743;82;21194;-79
2022/08/12 13:44:14;;;;;;;17.85;9.03;;;;;;;28.30;55.22;99846.98;1740693;82;21218;-79
2022/08/12 13:47:20;;;;;;;23.40;9.58;;;;;;;28.35;55.55;99839.33;1738757;82;21210;-79
2022/08/12 13:50:35;;;;;;;30.60;9.43;;;;;;;28.51;54.42;99848.34;1742692;81;21205;-79
2022/08/12 13:53:42;;;;;;;21.65;8.50;;;;;;;28.55;51.91;99860.66;1753573;81;21201;-81
2022/08/12 13:56:50;;;;;;;25.48;9.33;;;;;;;28.59;53.06;99860.31;1740745;82;21209;-80
2022/08/12 13:59:55;;;;;;;15.38;8.08;;;;;;;28.66;53.22;99850.09;1745319;81;21181;-80
2022/08/12 14:03:04;;;;;;;18.48;7.80;;;;;;;28.57;49.92;99858.39;1746935;81;21189;-79
2022/08/12 14:06:13;;;;;;;14.03;6.33;;;;;;;28.43;49.80;99861.14;1734658;82;21216;-79
2022/08/12 14:09:20;;;;;;;13.15;6.40;;;;;;;28.22;49.15;99848.50;1735142;82;21225;-80
2022/08/12 14:12:38;;;;;;;14.98;6.33;;;;;;;27.97;49.91;99860.39;1737005;81;21209;-81
2022/08/12 14:15:35;;;;;;;20.72;5.92;;;;;;;27.83;50.79;99863.68;1756731;81;21170;-79
2022/08/12 14:18:44;;;;;;;19.25;5.90;;;;;;;27.83;51.56;99886.16;1740434;82;21180;-79
2022/08/12 14:21:50;;;;;;;15.93;5.58;;;;;;;27.75;51.64;99869.39;1748258;81;21201;-79
2022/08/12 14:25:00;;;;;;;13.70;5.30;;;;;;;27.72;52.75;99858.77;1772202;81;21130;-79
2022/08/12 14:28:17;;;;;;;16.12;5.78;;;;;;;27.57;54.07;99871.59;1759365;81;21177;-79
2022/08/12 14:31:24;;;;;;;11.22;5.33;;;;;;;27.44;55.24;99875.11;1759026;81;21280;-79
2022/08/12 14:34:32;;;;;;;12.33;5.53;;;;;;;27.35;56.64;99870.71;1758324;81;21153;-79
2022/08/12 14:37:40;;;;;;;16.80;4.97;;;;;;;27.33;56.01;99860.90;1755682;81;21181;-79
2022/08/12 14:40:49;;;;;;;12.33;4.28;;;;;;;27.19;55.86;99870.02;1719926;82;21766;-82
2022/08/12 14:43:56;;;;;;;8.28;4.15;;;;;;;27.18;55.82;99872.56;1717404;82;21634;-84
2022/08/12 14:47:04;;;;;;;13.38;4.67;;;;;;;27.02;56.86;99903.31;1758080;80;21192;-82
2022/08/12 14:50:10;;;;;;;16.52;4.97;;;;;;;26.92;56.77;99878.98;1766543;80;21198;-81
2022/08/12 14:53:17;;;;;;;6.35;4.08;;;;;;;26.81;57.50;99888.61;1782265;80;21198;-81
2022/08/12 14:56:27;;;;;;;9.65;4.03;;;;;;;26.78;57.63;99870.16;1780743;80;21189;-82
2022/08/12 15:02:51;;;;;;;10.32;4.97;;;;;;;26.67;56.08;99863.77;1780428;80;21184;-82
2022/08/12 15:05:44;;;;;;;7.35;4.47;;;;;;;26.69;55.16;99860.12;1777809;80;21228;-81
2022/08/12 15:08:53;;;;;;;11.93;4.62;;;;;;;26.65;54.59;99851.45;1776496;80;21184;-81
2022/08/12 15:11:56;;;;;;;9.05;5.28;;;;;;;26.55;54.55;99845.94;1775784;80;21752;-82
2022/08/12 15:15:05;;;;;;;11.70;5.67;;;;;;;26.54;54.22;99854.09;1775420;80;21212;-80
2022/08/12 15:18:16;;;;;;;10.13;5.95;;;;;;;26.46;53.16;99859.74;1763160;80;21211;-80
2022/08/12 15:21:27;;;;;;;11.60;6.08;;;;;;;26.45;52.28;99865.66;1780388;80;21232;-82
2022/08/12 15:24:36;;;;;;;9.65;5.70;;;;;;;26.42;51.95;99840.95;1785223;80;21180;-80
2022/08/12 15:27:44;;;;;;;14.00;5.78;;;;;;;26.36;52.31;99858.39;1784519;80;21982;-81
2022/08/12 15:30:53;;;;;;;13.20;6.72;;;;;;;26.34;51.84;99864.00;1784241;80;21160;-81
2022/08/12 15:33:59;;;;;;;16.15;7.12;;;;;;;26.32;51.01;99862.91;1784505;80;21777;-80
2022/08/12 15:37:06;;;;;;;16.75;6.70;;;;;;;26.22;51.25;99858.20;1785657;80;21215;-81
2022/08/12 15:40:15;;;;;;;14.98;6.42;;;;;;;26.15;51.08;99856.84;1771460;80;21157;-82
2022/08/12 15:43:27;;;;;;;11.57;6.22;;;;;;;26.08;51.35;99861.39;1777984;80;21188;-83
2022/08/12 15:46:35;;;;;;;15.72;7.60;;;;;;;26.06;51.21;99866.98;1785033;80;21710;-82
2022/08/12 15:49:42;;;;;;;16.62;7.53;;;;;;;26.03;51.47;99871.80;1779962;80;21774;-82
2022/08/12 15:52:50;;;;;;;14.50;6.87;;;;;;;25.97;51.71;99849.95;1763896;80;21256;-81
2022/08/12 15:55:57;;;;;;;12.80;6.70;;;;;;;25.91;51.78;99846.91;1742761;82;21741;-82
2022/08/12 15:59:02;;;;;;;13.72;7.33;;;;;;;25.85;52.12;99846.67;1743500;82;21192;-82
2022/08/12 16:02:13;;;;;;;20.05;7.03;;;;;;;25.79;52.16;99857.08;1742309;82;21228;-80
2022/08/12 16:05:18;;;;;;;14.05;6.50;;;;;;;25.79;52.43;99856.23;1773694;80;21165;-79
2022/08/12 16:08:28;;;;;;;15.43;6.60;;;;;;;25.83;52.60;99858.71;1768748;80;21185;-79
2022/08/12 16:11:39;;;;;;;12.05;7.40;;;;;;;25.80;52.54;99857.91;1766405;80;21189;-78
2022/08/12 16:14:42;;;;;;;19.77;7.25;;;;;;;25.76;52.93;99861.00;1757486;80;21180;-79
2022/08/12 16:17:53;;;;;;;21.10;7.40;;;;;;;25.69;52.73;99859.33;1742612;82;21196;-79